Terminal Aerodrome Forecast
Issued by NWS

Home | Current Version | Previous Version | Text Only | Print | Product List | Glossary On
Versions: 1 2 3 4 5 6 7 8 9 10 11 12 13 14 15 16 17 18 19 20 21 22 23
000
FTUS45 KREV 022300
TAFTRK
TAF
KTRK 022320Z 0300/0324 25010G19KT P6SM SKC
     FM030400 VRB03KT P6SM SKC
     FM031900 35009KT P6SM SKC
      AMD NOT SKED 0302/0312=

USA.gov is the U.S. government's official web portal to all federal, state and local government web resources and services.